Terminal Aerodrome Forecast
Issued by NWS

Home | Current Version | Previous Version | Text Only | Print | Product List | Glossary On
Versions: 1 2 3 4 5 6 7 8 9 10 11 12 13 14 15 16 17 18 19 20 21 22 23 24 25 26 27
000
FTPQ31 PGUM 220537
TAFGUM
TAF

TAF
PKMJ 220537Z 2206/2306 20008KT P6SM -SHRA SCT015 BKN045 OVC100
      TEMPO 2206/2207 3SM +SHRA BKN014 OVC040
     FM221000 20007KT P6SM VCSH SCT015 SCT045 BKN120=

USA.gov is the U.S. government's official web portal to all federal, state and local government web resources and services.